createdAt,value
2022-09-12T00:02:31.387Z,2.10
2022-09-12T00:05:41.575Z,2.45
2022-09-12T00:08:46.691Z,2.30
2022-09-12T00:11:50.804Z,4.80
2022-09-12T00:14:55.156Z,3.10
2022-09-12T00:17:59.623Z,3.35
2022-09-12T00:21:04.987Z,2.97
2022-09-12T00:24:10.676Z,2.20
2022-09-12T00:27:15.058Z,2.33
2022-09-12T00:30:19.152Z,6.10
2022-09-12T00:33:23.603Z,2.50
2022-09-12T00:36:29.666Z,3.10
2022-09-12T00:39:34.301Z,3.22
2022-09-12T00:42:38.810Z,3.00
2022-09-12T00:45:43.302Z,2.72
2022-09-12T00:48:57.419Z,3.70
2022-09-12T00:52:23.175Z,3.50
2022-09-12T00:55:40.667Z,3.25
2022-09-12T00:58:51.511Z,6.60
2022-09-12T01:01:56.674Z,2.95
2022-09-12T01:05:01.038Z,3.22
2022-09-12T01:08:06.178Z,1.83
2022-09-12T01:11:11.722Z,2.63
2022-09-12T01:14:17.502Z,2.38
2022-09-12T01:17:22.165Z,3.03
2022-09-12T01:24:23.834Z,3.63
2022-09-12T01:27:40.245Z,3.78
2022-09-12T01:31:23.713Z,3.63
2022-09-12T01:34:37.143Z,8.80
2022-09-12T01:37:58.558Z,4.25
2022-09-12T01:41:14.132Z,3.53
2022-09-12T01:44:46.201Z,3.45
2022-09-12T01:48:03.069Z,2.60
2022-09-12T01:51:20.154Z,3.53
2022-09-12T01:54:32.174Z,3.08
2022-09-12T01:58:14.144Z,3.42
2022-09-12T02:01:29.988Z,2.80
2022-09-12T02:04:46.867Z,10.15
2022-09-12T02:08:14.326Z,6.57
2022-09-12T02:11:20.621Z,7.20
2022-09-12T02:14:36.746Z,3.10
2022-09-12T02:17:49.152Z,2.92
2022-09-12T02:20:55.933Z,4.32
2022-09-12T02:24:02.862Z,3.20
2022-09-12T02:27:37.848Z,2.88
2022-09-12T02:30:56.408Z,5.43
2022-09-12T02:34:33.455Z,2.78
2022-09-12T02:38:08.492Z,6.63
2022-09-12T02:41:17.387Z,2.95
2022-09-12T02:44:22.672Z,38.50
2022-09-12T02:47:34.234Z,22.00
2022-09-12T02:50:38.620Z,36.80
2022-09-12T02:53:43.211Z,62.45
2022-09-12T02:56:47.639Z,24.48
2022-09-12T02:59:57.158Z,16.67
2022-09-12T03:03:09.626Z,12.95
2022-09-12T03:06:45.447Z,15.77
2022-09-12T03:09:53.841Z,15.63
2022-09-12T03:13:30.014Z,21.38
2022-09-12T03:17:02.561Z,14.63
2022-09-12T03:20:21.651Z,7.38
2022-09-12T03:23:38.241Z,6.55
2022-09-12T03:26:48.882Z,9.20
2022-09-12T03:29:54.110Z,12.15
2022-09-12T03:32:58.418Z,4.38
2022-09-12T03:36:03.026Z,9.90
2022-09-12T03:39:07.270Z,12.88
2022-09-12T03:42:11.498Z,4.90
2022-09-12T03:45:16.613Z,6.22
2022-09-12T03:48:21.390Z,5.38
2022-09-12T03:51:25.413Z,7.13
2022-09-12T03:54:29.709Z,20.38
2022-09-12T03:57:34.095Z,3.67
2022-09-12T04:00:39.989Z,4.10
2022-09-12T04:03:46.850Z,9.90
2022-09-12T04:06:51.366Z,22.80
2022-09-12T04:09:56.253Z,1.95
2022-09-12T04:16:05.646Z,12.32
2022-09-12T04:19:11.673Z,22.70
2022-09-12T04:22:16.369Z,9.48
2022-09-12T04:25:20.945Z,20.55
2022-09-12T04:28:29.040Z,7.22
2022-09-12T04:31:33.459Z,16.08
2022-09-12T04:34:37.756Z,21.70
2022-09-12T04:37:42.071Z,7.28
2022-09-12T04:40:46.480Z,18.95
2022-09-12T04:44:02.331Z,8.63
2022-09-12T04:47:07.775Z,7.05
2022-09-12T04:50:12.058Z,9.75
2022-09-12T04:53:16.421Z,7.75
2022-09-12T04:56:21.753Z,13.43
2022-09-12T04:59:26.829Z,13.10
2022-09-12T05:05:37.699Z,5.38
2022-09-12T05:08:42.463Z,9.27
2022-09-12T05:15:11.750Z,12.97
2022-09-12T05:18:16.358Z,5.28
2022-09-12T05:21:23.197Z,4.35
2022-09-12T05:24:27.730Z,25.58
2022-09-12T05:27:31.931Z,26.35
2022-09-12T05:30:36.239Z,13.32
2022-09-12T05:33:42.387Z,23.13
2022-09-12T05:36:46.702Z,48.13
2022-09-12T05:39:52.375Z,40.47
2022-09-12T05:42:57.610Z,31.08
2022-09-12T05:46:03.566Z,33.13
2022-09-12T05:49:11.372Z,15.05
2022-09-12T05:52:16.233Z,13.10
2022-09-12T05:55:21.112Z,14.60
2022-09-12T05:58:25.374Z,12.88
2022-09-12T06:01:31.527Z,42.25
2022-09-12T06:04:35.827Z,42.42
2022-09-12T06:07:40.403Z,34.50
2022-09-12T06:10:44.897Z,44.38
2022-09-12T06:13:49.475Z,20.67
2022-09-12T06:16:53.757Z,43.97
2022-09-12T06:19:58.651Z,34.60
2022-09-12T06:23:03.046Z,44.63
2022-09-12T06:26:10.350Z,18.67
2022-09-12T06:29:15.423Z,47.92
2022-09-12T06:35:23.714Z,33.42
2022-09-12T06:38:28.124Z,44.22
2022-09-12T06:41:32.684Z,36.95
2022-09-12T06:44:37.344Z,25.00
2022-09-12T06:47:41.889Z,11.18
2022-09-12T06:51:10.240Z,11.45
2022-09-12T06:54:15.662Z,19.25
2022-09-12T06:57:20.091Z,3.25
2022-09-12T07:00:24.358Z,18.73
2022-09-12T07:03:28.672Z,10.98
2022-09-12T07:06:44.486Z,8.85
2022-09-12T07:09:49.369Z,16.83
2022-09-12T07:12:53.349Z,14.50
2022-09-12T07:16:02.391Z,8.73
2022-09-12T07:19:08.050Z,9.80
2022-09-12T07:22:12.477Z,10.35
2022-09-12T07:25:16.952Z,1.88
2022-09-12T07:28:21.502Z,5.30
2022-09-12T07:31:27.765Z,0.95
2022-09-12T07:34:32.515Z,2.63
2022-09-12T07:37:36.830Z,2.42
2022-09-12T07:40:41.256Z,0.68
2022-09-12T07:46:50.770Z,1.43
2022-09-12T07:49:55.013Z,2.80
2022-09-12T07:52:59.692Z,1.20
2022-09-12T07:59:09.777Z,1.40
2022-09-12T08:05:22.289Z,1.30
2022-09-12T08:08:27.049Z,1.35
2022-09-12T08:11:31.433Z,1.30
2022-09-12T08:14:35.606Z,0.75
